Terminal Aerodrome Forecast
Issued by NWS Wilmington, OH

Current Version | Previous Version | Graphics & Text | Print | Product List | Glossary On
Versions: 1 2 3 4 5 6 7 8 9 10 11 12 13 14 15 16 17
000
FTUS41 KILN 200800 AAB
TAFCMH
TAF AMD
KCMH 200802Z 2008/2106 34008KT P6SM BKN030
     FM201000 01007KT P6SM BKN150
     FM210100 03007KT P6SM VCSH BKN050=

USA.gov is the U.S. government's official web portal to all federal, state and local government web resources and services.